Bowman, SC

22:21 EDT le 22 octobre 2014 (GMT -0400)
Orangeburg Municipal | Change Station
CLOSE
Current Station
Aéroport
Location: Orangeburg,
Altitude: 197 ft
Stations météo à proximité

Alt. 197 ft 33.46 °N, 80.86 °W | Updated 28 minutes ago

Ciel dégagé
Ciel dégagé
50 ° F
Paraît 50 ° F
N
0
Vent Variable Vent de Nord

Aujourd'hui
Haut(e) -- | Bas -- ° F
--% Risque de précip.
Hier
Haut(e) -- | Bas -- ° F
Precip. -- pouce
7:32 AM 6:41 PM
Lune descendante, 1% visible
Pression 30.08 pouce
Visibilité 10.0 Miles terrestres
Nuages Ciel dégagé
Point de rosée 46 ° F
Humidité 86%
Précipitations 0.00 pouce
Profondeur de la couche neigeuse Non disponible.
UV 0 sur 12
Pollen 3.80 sur 12
Ozone Bon
PM2.5 Bon
Flu Activity Sporadic
METAR KOGB 230153Z AUTO 00000KT 10SM CLR 10/08 A3008 RMK AO2 SLP184 T01000078

More Conditions Fewer Conditions

Pression 30.08 pouce
Visibilité 10.0 Miles terrestres
Nuages Ciel dégagé
Point de rosée 46 ° F
Humidité 86%
Précipitations 0.00 pouce
Profondeur de la couche neigeuse Non disponible.
UV 0 sur 12
Pollen 3.80 sur 12
Ozone Bon
PM2.5 Bon
Flu Activity Sporadic
METAR KOGB 230153Z AUTO 00000KT 10SM CLR 10/08 A3008 RMK AO2 SLP184 T01000078

More Conditions Fewer Conditions

10-Day Weather Forecast

Almanac

Astronomie

Oct. 22, 2014 Lever Coucher
Temps réel 07:32 EDT 18:41 EDT
Crépuscule civil 07:07 EDT 19:06 EDT
Crépuscule nautique 06:38 EDT 19:35 EDT
Crépuscule astronomique 06:09 EDT 20:04 EDT
Lune 06:16 EDT (10/22) 18:04 EDT (10/22)
Durée de lumière visible 11h 58m
Longueur du jour
11h 08m
Tomorrow will be 1m 55s shorter.
Lune descendante, 1% of the Moon is Illuminated
Aujourd'hui
Lune descendante
Oct 23
Nouveau
Oct 30
Premier quartier
Nov 6
Pleine lune
Nov 14
Dernier quartier

Extrêmes aujourd'hui

State Highs State Lows

Community

WunderPhotos

Upload Photos

1,764,109 Photos téléchargées !

Nearby

Qualité de l'air

  Qualité de l'air Indice de la qualité de l'air Polluant
Hier Bon
OZONE
Hier Bon
PM2.5
Actuel Bon
PM2.5
Actuel Bon
OZONE

Épaisseur de neige

Station Depth Altitude
Pas de nouvelles chutes de neige

Activité sismique

Ville Distance Mag. Time & Date
No recent earthquake activity has been reported nearby.
Minimum magnitude displayed is 2.5.

Températures des eaux côtières

Lieu Température
Aucun rapport de station

Stations météo à proximité